KHUM/HUM METAR and TAF weather

Enter ICAO airport designator
Station Type Date Time Source
KHUM METAR 2019/12/05 22:47 UTC NOAA

KHUM 052247Z 14006KT 7SM CLR 17/09 A3009


Station Type Date Time Source
KHUM Decoded METAR 2019/12/05 22:47 UTC NOAA

Houma-Terrebonne, LA, United States (KHUM) 29-34N 090-40W
Dec 05, 2019 - 05:47 PM EST / 2019.12.05 2247 UTC
Wind: from the SE (140 degrees) at 7 MPH (6 KT):0
Visibility: 7 mile(s):0
Sky conditions: clear
Temperature: 62 F (17 C)
Dew Point: 48 F (9 C)
Relative Humidity: 59%
Pressure (altimeter): 30.09 in. Hg (1018 hPa)
ob: KHUM 052247Z 14006KT 7SM CLR 17/09 A3009
cycle: 23

Station Type Date Time Source
KHUM TAF 2019/12/05 18:59 UTC NOAA

TAF COR KHUM 051759Z 0518/0618 14008KT P6SM SKC
FM060400 00000KT P6SM FEW250
FM060600 VRB03KT P6SM FEW050 SCT250
FM061200 VRB04KT P6SM VCSH SCT050 OVC100
FM061500 19008KT P6SM -SHRA BKN040

Example: see airport list